Time;durP1;ratioP1;P1;durP2;ratioP2;P2;SDS_P1;SDS_P2;PMS_P1;PMS_P2;Temp;Humidity;BMP_temperature;BMP_pressure;BME280_temperature;BME280_humidity;BME280_pressure;Samples;Min_cycle;Max_cycle;Signal;HPM_P1;HPM_P2
2021/06/21 00:00:00;;;;;;;10.18;7.00;;;27.10;85.30;;;;;;5133842;27;20450;-59
2021/06/21 00:02:29;;;;;;;13.88;7.85;;;27.10;85.40;;;;;;5133730;27;20084;-59
2021/06/21 00:04:56;;;;;;;12.05;8.50;;;26.90;85.50;;;;;;5133551;27;20409;-59
2021/06/21 00:07:24;;;;;;;16.02;10.20;;;26.90;85.50;;;;;;5133573;27;20074;-59
2021/06/21 00:09:51;;;;;;;13.98;10.25;;;26.80;85.60;;;;;;5133410;27;20078;-59
2021/06/21 00:12:19;;;;;;;12.70;10.27;;;26.70;85.60;;;;;;5133648;27;20073;-59
2021/06/21 00:14:47;;;;;;;13.85;9.73;;;26.80;85.70;;;;;;5134495;27;20047;-59
2021/06/21 00:17:16;;;;;;;12.75;9.52;;;26.60;85.80;;;;;;5137324;27;20066;-59
2021/06/21 00:19:44;;;;;;;14.02;8.40;;;26.60;86.00;;;;;;5137807;27;20073;-59
2021/06/21 00:22:14;;;;;;;10.13;7.25;;;26.60;86.00;;;;;;5136603;27;20051;-59
2021/06/21 00:24:43;;;;;;;11.32;7.93;;;26.50;86.10;;;;;;5137746;27;20051;-59
2021/06/21 00:27:12;;;;;;;11.90;7.35;;;26.50;87.00;;;;;;5137493;27;20047;-59
2021/06/21 00:29:40;;;;;;;8.55;6.15;;;26.50;86.50;;;;;;5137228;27;20051;-59
2021/06/21 00:32:09;;;;;;;8.13;6.35;;;26.30;86.70;;;;;;5135993;27;20043;-59
2021/06/21 00:34:36;;;;;;;12.77;7.50;;;26.30;86.90;;;;;;5136991;27;20049;-59
2021/06/21 00:37:04;;;;;;;11.68;6.97;;;26.40;87.00;;;;;;5137254;27;20397;-59
2021/06/21 00:39:32;;;;;;;9.77;7.57;;;26.40;86.90;;;;;;5137132;27;20050;-59
2021/06/21 00:41:59;;;;;;;12.10;8.20;;;26.30;86.80;;;;;;5136857;27;20051;-59
2021/06/21 00:44:27;;;;;;;14.80;10.00;;;26.30;86.80;;;;;;5137432;27;20439;-59
2021/06/21 00:46:55;;;;;;;15.48;11.50;;;26.30;86.80;;;;;;5135538;27;20054;-59
2021/06/21 00:49:23;;;;;;;17.20;12.13;;;26.30;86.60;;;;;;5136918;27;20051;-59
2021/06/21 00:51:52;;;;;;;18.25;12.88;;;26.40;86.40;;;;;;5136896;27;20366;-59
2021/06/21 00:54:20;;;;;;;15.15;12.00;;;26.40;86.10;;;;;;5136921;27;20047;-59
2021/06/21 00:56:49;;;;;;;21.52;12.68;;;26.50;86.00;;;;;;5136703;27;20100;-59
2021/06/21 00:59:16;;;;;;;14.45;10.68;;;26.50;85.70;;;;;;5136880;27;20108;-59
2021/06/21 01:01:44;;;;;;;12.25;10.02;;;26.60;85.40;;;;;;5136733;27;20047;-60
2021/06/21 01:04:11;;;;;;;14.93;10.15;;;26.60;85.40;;;;;;5136978;27;20049;-59
2021/06/21 01:06:39;;;;;;;10.45;8.50;;;26.50;85.30;;;;;;5137119;27;20130;-59
2021/06/21 01:09:07;;;;;;;13.40;8.23;;;26.60;85.30;;;;;;5137025;27;20047;-60
2021/06/21 01:11:51;;;;;;;10.70;8.68;;;26.60;85.30;;;;;;5136549;27;20044;-59
2021/06/21 01:14:21;;;;;;;9.80;7.68;;;26.60;85.10;;;;;;5136487;27;20047;-59
2021/06/21 01:17:07;;;;;;;11.32;8.50;;;26.60;85.10;;;;;;5136771;27;20048;-59
2021/06/21 01:20:08;;;;;;;9.77;7.97;;;26.70;85.10;;;;;;5134991;27;20044;-59
2021/06/21 01:22:54;;;;;;;9.50;8.15;;;26.70;84.90;;;;;;5135010;27;20047;-60
2021/06/21 01:25:43;;;;;;;10.95;7.40;;;26.70;84.80;;;;;;5136226;27;20488;-59
2021/06/21 01:28:40;;;;;;;8.50;7.22;;;26.70;84.60;;;;;;5136640;27;20456;-59
2021/06/21 01:31:17;;;;;;;11.25;6.68;;;26.70;84.40;;;;;;5135325;27;20389;-60
2021/06/21 01:33:48;;;;;;;9.50;6.63;;;26.70;84.30;;;;;;5136200;27;20047;-59
2021/06/21 01:36:19;;;;;;;10.05;7.13;;;26.60;84.30;;;;;;5134964;27;20053;-59
2021/06/21 01:38:54;;;;;;;11.30;6.68;;;26.50;84.50;;;;;;5136185;27;20087;-59
2021/06/21 01:41:28;;;;;;;13.40;7.60;;;26.40;84.60;;;;;;5136022;27;20058;-59
2021/06/21 01:43:58;;;;;;;13.63;9.15;;;26.30;84.60;;;;;;5136207;27;20058;-59
2021/06/21 01:46:33;;;;;;;14.63;8.27;;;26.30;84.90;;;;;;5134797;27;20055;-60
2021/06/21 01:49:06;;;;;;;9.52;7.70;;;26.30;84.90;;;;;;5136305;27;20069;-59
2021/06/21 01:51:36;;;;;;;10.50;8.05;;;26.40;84.80;;;;;;5135740;27;20103;-59
2021/06/21 01:54:05;;;;;;;11.90;6.95;;;26.40;84.60;;;;;;5135589;27;20051;-59
2021/06/21 01:56:45;;;;;;;10.25;7.32;;;26.50;84.50;;;;;;5134980;27;20047;-59
2021/06/21 01:59:16;;;;;;;10.77;7.03;;;26.50;84.20;;;;;;5134358;27;20057;-59
2021/06/21 02:01:45;;;;;;;8.52;7.35;;;26.50;83.90;;;;;;5134416;27;20390;-59
2021/06/21 02:04:14;;;;;;;9.23;6.40;;;26.50;83.80;;;;;;5134175;27;20067;-59
2021/06/21 02:06:45;;;;;;;7.95;6.43;;;26.50;83.70;;;;;;5135187;27;20043;-59
2021/06/21 02:09:14;;;;;;;10.02;6.38;;;26.50;83.60;;;;;;5135399;27;20047;-60
2021/06/21 02:11:42;;;;;;;7.75;5.90;;;26.50;83.50;;;;;;5135177;27;20143;-59
2021/06/21 02:14:10;;;;;;;10.20;6.78;;;26.60;83.40;;;;;;5135172;27;20138;-59
2021/06/21 02:16:38;;;;;;;17.48;7.30;;;26.50;83.20;;;;;;5135170;27;20047;-59
2021/06/21 02:19:06;;;;;;;9.77;6.07;;;26.60;83.20;;;;;;5135122;27;20503;-59
2021/06/21 02:21:34;;;;;;;7.20;6.15;;;26.60;83.10;;;;;;5134849;27;20053;-60
2021/06/21 02:24:02;;;;;;;9.15;6.10;;;26.60;82.80;;;;;;5134650;27;20050;-59
2021/06/21 02:26:30;;;;;;;7.18;5.22;;;26.60;82.60;;;;;;5134861;27;20078;-59
2021/06/21 02:29:00;;;;;;;9.30;6.40;;;26.70;82.50;;;;;;5134181;27;20104;-59
2021/06/21 02:31:29;;;;;;;7.70;6.35;;;26.60;82.40;;;;;;5134527;27;20396;-59
2021/06/21 02:33:57;;;;;;;8.73;6.20;;;26.60;82.30;;;;;;5133812;27;20511;-59
2021/06/21 02:36:25;;;;;;;7.57;6.13;;;26.60;82.20;;;;;;5133649;27;20400;-59
2021/06/21 02:38:54;;;;;;;10.02;6.63;;;26.60;82.10;;;;;;5133350;27;20043;-59
2021/06/21 02:41:22;;;;;;;7.55;5.97;;;26.60;82.10;;;;;;5133715;27;20054;-59
2021/06/21 02:43:49;;;;;;;8.80;6.75;;;26.60;82.40;;;;;;5133838;27;20051;-60
2021/06/21 02:46:17;;;;;;;8.38;5.90;;;26.60;82.40;;;;;;5133775;27;20074;-59
2021/06/21 02:48:45;;;;;;;9.60;6.78;;;26.60;82.30;;;;;;5134450;27;20158;-60
2021/06/21 02:51:19;;;;;;;9.35;6.65;;;26.60;82.40;;;;;;5134428;27;20104;-59
2021/06/21 02:54:14;;;;;;;10.27;7.05;;;26.60;82.50;;;;;;5134346;27;20467;-59
2021/06/21 02:56:49;;;;;;;8.90;6.55;;;26.60;82.70;;;;;;5133357;27;20108;-60
2021/06/21 02:59:20;;;;;;;8.80;6.63;;;26.60;82.70;;;;;;5134465;27;20154;-59
2021/06/21 03:01:52;;;;;;;9.40;6.63;;;26.60;82.80;;;;;;5133122;27;20055;-60
2021/06/21 03:04:21;;;;;;;8.43;6.72;;;26.60;83.40;;;;;;5134258;27;20054;-59
2021/06/21 03:06:51;;;;;;;10.05;6.22;;;26.60;82.80;;;;;;5133176;27;20078;-60
2021/06/21 03:09:21;;;;;;;9.15;6.28;;;26.60;82.80;;;;;;5134536;27;20492;-59
2021/06/21 03:11:51;;;;;;;8.15;6.20;;;26.60;82.80;;;;;;5133135;27;20406;-60
2021/06/21 03:14:24;;;;;;;11.32;7.60;;;26.60;82.90;;;;;;5134178;27;20047;-60
2021/06/21 03:16:54;;;;;;;8.20;6.43;;;26.60;82.80;;;;;;5133292;27;20043;-60
2021/06/21 03:19:22;;;;;;;10.43;6.95;;;26.60;82.80;;;;;;5134123;27;20047;-60
2021/06/21 03:21:50;;;;;;;9.60;6.97;;;26.70;82.80;;;;;;5134245;27;20047;-59
2021/06/21 03:24:26;;;;;;;10.10;6.13;;;26.70;82.90;;;;;;5133008;27;20047;-60
2021/06/21 03:26:54;;;;;;;10.45;6.38;;;26.70;82.80;;;;;;5134403;27;20058;-60
2021/06/21 03:29:23;;;;;;;12.45;6.18;;;26.70;82.90;;;;;;5134118;27;20047;-59
2021/06/21 03:31:53;;;;;;;10.93;6.25;;;26.70;82.90;;;;;;5132633;28;20412;-59
2021/06/21 03:34:23;;;;;;;10.10;6.72;;;26.60;82.90;;;;;;5134186;27;20549;-60
2021/06/21 03:36:51;;;;;;;9.02;6.72;;;26.60;83.00;;;;;;5134233;27;20073;-59
2021/06/21 03:39:18;;;;;;;13.23;6.63;;;26.50;83.00;;;;;;5133033;28;20077;-60
2021/06/21 03:41:46;;;;;;;9.68;6.82;;;26.50;83.20;;;;;;5132830;28;20389;-60
2021/06/21 03:44:14;;;;;;;10.57;7.05;;;26.40;83.00;;;;;;5132726;28;20053;-59
2021/06/21 03:46:41;;;;;;;8.27;7.05;;;26.30;83.00;;;;;;5134087;27;20047;-60
2021/06/21 03:49:09;;;;;;;12.27;7.65;;;26.10;83.40;;;;;;5136227;27;20043;-60
2021/06/21 03:51:37;;;;;;;13.82;8.35;;;26.10;83.80;;;;;;5138200;27;20039;-60
2021/06/21 03:54:04;;;;;;;15.05;8.82;;;26.00;83.70;;;;;;5138226;27;20150;-60
2021/06/21 03:56:32;;;;;;;11.13;9.75;;;26.10;83.90;;;;;;5138301;27;20043;-60
2021/06/21 03:58:59;;;;;;;18.77;11.88;;;26.10;83.90;;;;;;5138000;27;20051;-60
2021/06/21 04:01:27;;;;;;;18.17;12.20;;;26.10;83.90;;;;;;5138185;27;20073;-60
2021/06/21 04:03:58;;;;;;;17.88;11.65;;;26.20;83.80;;;;;;5138412;27;20080;-60
2021/06/21 04:06:26;;;;;;;20.00;13.70;;;26.20;83.50;;;;;;5138005;27;20505;-60
2021/06/21 04:08:54;;;;;;;16.27;11.50;;;26.30;83.40;;;;;;5137797;27;20134;-60
2021/06/21 04:11:25;;;;;;;15.75;11.73;;;26.30;83.20;;;;;;5137719;27;20047;-60
2021/06/21 04:13:53;;;;;;;16.33;10.70;;;26.30;82.90;;;;;;5120183;27;20047;-60
2021/06/21 04:16:21;;;;;;;15.82;11.23;;;26.20;83.00;;;;;;5138071;27;20051;-60
2021/06/21 04:18:49;;;;;;;24.70;15.27;;;26.10;83.10;;;;;;5138080;27;20046;-59
2021/06/21 04:21:16;;;;;;;27.35;15.98;;;26.10;83.10;;;;;;5136537;27;20472;-60
2021/06/21 04:23:44;;;;;;;26.58;17.77;;;26.00;82.90;;;;;;5137516;27;20532;-60
2021/06/21 04:26:12;;;;;;;24.17;16.25;;;26.10;83.00;;;;;;5137779;27;20131;-60
2021/06/21 04:28:39;;;;;;;23.80;16.23;;;26.10;82.80;;;;;;5137585;27;20071;-60
2021/06/21 04:31:07;;;;;;;28.08;16.48;;;26.20;82.70;;;;;;5137280;27;20043;-59
2021/06/21 04:33:34;;;;;;;27.83;14.30;;;26.30;82.70;;;;;;5135822;27;20409;-60
2021/06/21 04:36:02;;;;;;;24.23;14.07;;;26.50;82.40;;;;;;5136011;27;20043;-60
2021/06/21 04:38:30;;;;;;;24.27;13.55;;;26.60;81.90;;;;;;5135977;27;20054;-60
2021/06/21 04:40:57;;;;;;;22.08;13.57;;;26.80;81.40;;;;;;5137260;27;20039;-60
2021/06/21 04:43:25;;;;;;;19.20;12.50;;;26.90;81.10;;;;;;5137256;27;20096;-60
2021/06/21 04:45:53;;;;;;;27.17;14.85;;;27.10;80.80;;;;;;5136077;27;20054;-60
2021/06/21 04:48:20;;;;;;;18.83;13.68;;;27.30;80.60;;;;;;5135941;27;20050;-60
2021/06/21 04:50:48;;;;;;;20.80;11.95;;;27.40;80.10;;;;;;5137116;27;20043;-60
2021/06/21 04:53:18;;;;;;;20.67;11.70;;;27.60;79.50;;;;;;5137457;27;20051;-60
2021/06/21 04:55:45;;;;;;;14.30;9.60;;;27.70;78.80;;;;;;5137219;27;20051;-60
2021/06/21 04:58:13;;;;;;;20.67;11.52;;;27.80;78.00;;;;;;5135866;27;20047;-60
2021/06/21 05:00:41;;;;;;;17.33;11.00;;;28.00;77.20;;;;;;5135166;27;20134;-60
2021/06/21 05:03:09;;;;;;;13.35;9.98;;;28.10;77.30;;;;;;5137432;27;20178;-60
2021/06/21 05:05:37;;;;;;;20.02;11.20;;;28.20;77.00;;;;;;5135615;27;20134;-60
2021/06/21 05:08:06;;;;;;;15.63;9.45;;;28.40;76.40;;;;;;5136662;27;20054;-60
2021/06/21 05:10:33;;;;;;;13.20;8.60;;;28.50;76.30;;;;;;5137156;27;20167;-60
2021/06/21 05:13:01;;;;;;;13.15;7.30;;;28.60;76.20;;;;;;5136705;27;20092;-60
2021/06/21 05:15:29;;;;;;;9.18;6.75;;;28.70;75.70;;;;;;5135351;27;20051;-60
2021/06/21 05:17:57;;;;;;;9.80;6.40;;;28.80;74.80;;;;;;5136520;27;20043;-60
2021/06/21 05:20:24;;;;;;;10.63;6.38;;;29.00;73.70;;;;;;5136375;27;20043;-60
2021/06/21 05:22:52;;;;;;;10.88;6.80;;;29.00;73.20;;;;;;5136481;27;20126;-60
2021/06/21 05:25:20;;;;;;;9.95;6.95;;;29.20;72.80;;;;;;5136443;27;20046;-60
2021/06/21 05:27:48;;;;;;;12.52;6.00;;;29.20;72.40;;;;;;5136466;27;20047;-60
2021/06/21 05:30:16;;;;;;;7.50;4.63;;;29.40;72.00;;;;;;5136346;27;20051;-60
2021/06/21 05:32:43;;;;;;;12.93;4.72;;;29.60;69.50;;;;;;5135069;27;20071;-60
2021/06/21 05:35:11;;;;;;;7.93;3.83;;;29.70;66.60;;;;;;5136566;27;20137;-60
2021/06/21 05:37:41;;;;;;;8.18;4.05;;;29.80;63.80;;;;;;5136882;27;20067;-60
2021/06/21 05:40:09;;;;;;;9.27;4.75;;;29.90;63.10;;;;;;5134934;27;20108;-60
2021/06/21 05:42:37;;;;;;;15.13;6.15;;;30.00;63.50;;;;;;5136097;27;20141;-60
2021/06/21 05:45:05;;;;;;;11.90;4.10;;;30.20;63.30;;;;;;5135936;27;20039;-60
2021/06/21 05:47:33;;;;;;;11.40;3.67;;;30.30;62.70;;;;;;5135908;27;20378;-60
2021/06/21 05:50:01;;;;;;;9.30;3.55;;;30.50;62.40;;;;;;5136126;27;20126;-60
2021/06/21 05:52:29;;;;;;;12.45;5.03;;;30.60;62.20;;;;;;5134635;27;20043;-60
2021/06/21 05:55:00;;;;;;;7.93;4.72;;;30.70;63.50;;;;;;5135760;27;20043;-60
2021/06/21 05:57:30;;;;;;;8.90;4.13;;;30.60;64.10;;;;;;5135774;27;20051;-60
2021/06/21 05:59:58;;;;;;;13.15;4.57;;;30.60;63.60;;;;;;5135953;27;20043;-60
2021/06/21 06:02:27;;;;;;;7.13;3.67;;;30.60;63.60;;;;;;5135552;27;20047;-60
2021/06/21 06:04:55;;;;;;;9.75;4.07;;;30.60;63.50;;;;;;5134388;27;20420;-60
2021/06/21 06:07:24;;;;;;;9.02;3.95;;;30.60;63.40;;;;;;5134387;27;20134;-60
2021/06/21 06:09:51;;;;;;;7.85;3.50;;;30.60;63.90;;;;;;5135493;27;20058;-60
2021/06/21 06:12:19;;;;;;;7.30;3.58;;;30.60;64.00;;;;;;5133518;27;20051;-60
2021/06/21 06:14:47;;;;;;;9.75;4.43;;;30.60;64.10;;;;;;5134417;27;20442;-60
2021/06/21 06:17:15;;;;;;;10.18;4.60;;;30.70;64.10;;;;;;5135380;27;20405;-60
2021/06/21 06:19:43;;;;;;;12.35;4.60;;;30.60;64.00;;;;;;5135749;27;20433;-60
2021/06/21 06:22:13;;;;;;;11.57;4.35;;;30.60;64.20;;;;;;5135213;27;20086;-60
2021/06/21 06:24:41;;;;;;;11.23;3.90;;;30.60;64.00;;;;;;5135233;27;20067;-60
2021/06/21 06:27:09;;;;;;;10.55;5.07;;;30.60;63.80;;;;;;5135386;27;20046;-60
2021/06/21 06:29:36;;;;;;;11.50;3.97;;;30.70;63.90;;;;;;5135509;27;20046;-60
2021/06/21 06:32:05;;;;;;;11.20;4.07;;;30.80;63.60;;;;;;5135084;27;20062;-60
2021/06/21 06:34:33;;;;;;;8.60;4.60;;;31.00;63.40;;;;;;5133590;27;20387;-60
2021/06/21 06:37:01;;;;;;;8.57;3.90;;;31.20;62.90;;;;;;5135200;27;20051;-60
2021/06/21 06:39:28;;;;;;;5.82;3.78;;;31.40;62.30;;;;;;5133894;27;20053;-60
2021/06/21 06:41:56;;;;;;;12.77;4.38;;;31.70;61.90;;;;;;5134885;27;20058;-60
2021/06/21 06:44:24;;;;;;;11.13;4.82;;;31.80;61.90;;;;;;5135035;27;20051;-60
2021/06/21 06:46:51;;;;;;;17.67;4.57;;;32.00;61.90;;;;;;5134824;27;20039;-60
2021/06/21 06:49:19;;;;;;;9.23;4.15;;;32.00;61.60;;;;;;5135102;27;20119;-60
2021/06/21 06:51:51;;;;;;;7.22;3.65;;;32.10;61.60;;;;;;5134596;27;20078;-60
2021/06/21 06:57:00;;;;;;;9.55;3.97;;;32.00;61.70;;;;;;5134759;27;20062;-60
2021/06/21 06:59:37;;;;;;;9.05;4.18;;;31.90;61.70;;;;;;5133698;27;20096;-60
2021/06/21 07:02:12;;;;;;;13.45;4.22;;;31.80;61.80;;;;;;5134511;27;20075;-60
2021/06/21 07:04:40;;;;;;;8.23;4.53;;;31.60;61.70;;;;;;5134816;27;20066;-60
2021/06/21 07:07:07;;;;;;;12.48;5.43;;;31.30;62.20;;;;;;5134619;27;20047;-59
2021/06/21 07:09:35;;;;;;;12.75;3.97;;;31.40;62.30;;;;;;5134578;27;20066;-60
2021/06/21 07:12:03;;;;;;;11.57;5.07;;;31.40;62.80;;;;;;5134393;27;20066;-60
2021/06/21 07:14:32;;;;;;;10.95;5.55;;;31.50;62.60;;;;;;5133103;27;20074;-60
2021/06/21 07:17:00;;;;;;;15.02;4.75;;;31.40;62.60;;;;;;5134576;27;20050;-60
2021/06/21 07:19:28;;;;;;;12.05;4.97;;;31.30;62.30;;;;;;5133249;27;20047;-60
2021/06/21 07:21:56;;;;;;;8.82;4.05;;;31.10;62.70;;;;;;5134465;27;20138;-60
2021/06/21 07:24:24;;;;;;;12.45;5.25;;;31.00;62.60;;;;;;5133873;27;20047;-60
2021/06/21 07:26:52;;;;;;;14.88;6.70;;;31.10;63.00;;;;;;5134294;27;20078;-60
2021/06/21 07:29:21;;;;;;;13.93;4.55;;;31.10;63.10;;;;;;5132913;28;20067;-60
2021/06/21 07:31:49;;;;;;;8.55;4.18;;;30.90;63.20;;;;;;5134552;27;20141;-60
2021/06/21 07:34:17;;;;;;;8.80;4.32;;;31.00;63.50;;;;;;5134209;27;20075;-60
2021/06/21 07:36:45;;;;;;;6.65;5.05;;;30.90;63.60;;;;;;5134246;27;20054;-60
2021/06/21 07:39:13;;;;;;;14.10;5.07;;;31.00;63.60;;;;;;5134132;27;20066;-60
2021/06/21 07:41:41;;;;;;;11.80;4.95;;;31.20;63.10;;;;;;5134051;27;20044;-60
2021/06/21 07:44:11;;;;;;;9.82;5.70;;;31.40;62.60;;;;;;5134254;27;20055;-60
2021/06/21 07:46:39;;;;;;;9.95;4.90;;;31.80;62.10;;;;;;5134002;28;20063;-60
2021/06/21 07:49:07;;;;;;;12.50;4.20;;;32.10;61.90;;;;;;5134177;27;20486;-60
2021/06/21 07:51:34;;;;;;;13.35;4.82;;;32.30;61.50;;;;;;5134194;27;20150;-60
2021/06/21 07:54:02;;;;;;;11.40;5.72;;;32.60;60.90;;;;;;5133979;27;20405;-59
2021/06/21 07:56:30;;;;;;;15.15;5.93;;;32.60;61.10;;;;;;5134151;27;20042;-60
2021/06/21 07:58:58;;;;;;;13.15;4.65;;;32.80;60.90;;;;;;5134101;27;20409;-60
2021/06/21 08:01:25;;;;;;;18.63;5.57;;;33.00;61.00;;;;;;5134139;27;20047;-60
2021/06/21 08:03:55;;;;;;;19.23;4.95;;;32.80;60.70;;;;;;5133996;27;20082;-60
2021/06/21 08:06:26;;;;;;;21.95;6.38;;;33.00;60.70;;;;;;5115718;28;20053;-60
2021/06/21 08:08:54;;;;;;;11.38;5.35;;;33.30;60.40;;;;;;5132608;28;20080;-60
2021/06/21 08:11:22;;;;;;;14.38;5.47;;;33.50;60.20;;;;;;5134524;27;20047;-60
2021/06/21 08:13:56;;;;;;;13.82;6.00;;;33.70;59.70;;;;;;5132986;28;20058;-60
2021/06/21 08:16:24;;;;;;;16.40;5.82;;;33.50;60.00;;;;;;5133790;27;20405;-60
2021/06/21 08:18:52;;;;;;;16.48;5.00;;;33.70;60.50;;;;;;5133774;27;20051;-60
2021/06/21 08:21:20;;;;;;;14.40;5.65;;;33.40;59.70;;;;;;5132340;28;20051;-60
2021/06/21 08:23:47;;;;;;;9.73;5.53;;;33.40;60.10;;;;;;5133828;27;20112;-60
2021/06/21 08:26:16;;;;;;;13.68;5.55;;;33.60;60.00;;;;;;5134106;27;20507;-60
2021/06/21 08:28:44;;;;;;;23.98;5.18;;;33.60;59.40;;;;;;5133980;27;20493;-60
2021/06/21 08:31:12;;;;;;;14.45;5.47;;;33.80;59.40;;;;;;5133681;27;20082;-60
2021/06/21 08:33:39;;;;;;;16.27;5.22;;;33.80;59.40;;;;;;5133747;27;20396;-60
2021/06/21 08:36:08;;;;;;;15.45;6.40;;;33.70;59.10;;;;;;5135467;27;20511;-60
2021/06/21 08:38:36;;;;;;;13.48;5.05;;;33.60;59.40;;;;;;5137758;27;20126;-60
2021/06/21 08:41:05;;;;;;;22.02;5.40;;;33.50;59.80;;;;;;5137454;27;20133;-60
2021/06/21 08:43:33;;;;;;;14.27;5.32;;;33.40;59.70;;;;;;5137188;27;20050;-60
2021/06/21 08:46:02;;;;;;;17.25;6.20;;;33.30;60.10;;;;;;5137568;27;20047;-60
2021/06/21 08:48:31;;;;;;;17.92;5.97;;;33.30;60.20;;;;;;5137146;27;20057;-60
2021/06/21 08:50:59;;;;;;;19.75;5.25;;;33.30;60.60;;;;;;5137511;27;20044;-60
2021/06/21 08:53:28;;;;;;;8.85;4.70;;;33.50;60.40;;;;;;5136947;27;20082;-60
2021/06/21 08:55:55;;;;;;;14.57;5.43;;;33.80;60.40;;;;;;5137131;27;20047;-60
2021/06/21 08:58:23;;;;;;;20.35;5.55;;;34.00;60.00;;;;;;5136947;27;20046;-60
2021/06/21 09:00:51;;;;;;;10.73;4.88;;;34.10;59.70;;;;;;5136857;27;20078;-60
2021/06/21 09:03:19;;;;;;;17.45;5.93;;;34.00;60.00;;;;;;5137325;27;20133;-60
2021/06/21 09:05:47;;;;;;;16.08;5.28;;;34.00;60.10;;;;;;5136923;27;20044;-60
2021/06/21 09:08:15;;;;;;;14.00;4.97;;;34.00;59.60;;;;;;5137078;27;20647;-60
2021/06/21 09:10:43;;;;;;;19.25;5.10;;;34.00;59.80;;;;;;5136737;27;20043;-60
2021/06/21 09:13:16;;;;;;;19.15;5.82;;;34.00;59.90;;;;;;5136588;27;20047;-60
2021/06/21 09:15:49;;;;;;;16.60;5.00;;;34.20;59.70;;;;;;5136813;27;20063;-60
2021/06/21 09:18:27;;;;;;;14.65;5.78;;;34.40;59.50;;;;;;5136709;27;20047;-60
2021/06/21 09:21:27;;;;;;;17.23;5.85;;;34.60;59.40;;;;;;5136706;27;20404;-60
2021/06/21 09:24:25;;;;;;;20.00;4.15;;;34.70;58.90;;;;;;5136552;27;20051;-60
2021/06/21 09:26:57;;;;;;;18.38;5.88;;;34.80;59.00;;;;;;5136797;27;20174;-60
2021/06/21 09:29:35;;;;;;;15.18;5.28;;;34.90;58.80;;;;;;5136388;27;20085;-60
2021/06/21 09:32:11;;;;;;;15.30;4.88;;;34.90;58.10;;;;;;5136090;27;20086;-60
2021/06/21 09:34:41;;;;;;;13.45;5.35;;;34.40;58.70;;;;;;5136517;27;20059;-60
2021/06/21 09:37:14;;;;;;;12.93;5.07;;;34.00;59.40;;;;;;5136363;27;20528;-60
2021/06/21 09:39:43;;;;;;;18.13;5.60;;;34.10;59.80;;;;;;5136479;27;20085;-60
2021/06/21 09:42:24;;;;;;;18.20;5.93;;;34.40;59.90;;;;;;5135050;27;20504;-60
2021/06/21 09:44:55;;;;;;;16.25;5.35;;;34.50;59.60;;;;;;5136275;27;20100;-60
2021/06/21 09:47:34;;;;;;;19.35;6.35;;;34.70;59.50;;;;;;5136025;27;20047;-60
2021/06/21 09:50:15;;;;;;;17.00;4.75;;;34.90;59.20;;;;;;5135969;27;20049;-60
2021/06/21 09:52:53;;;;;;;19.95;5.80;;;34.70;58.30;;;;;;5135859;27;20061;-60
2021/06/21 09:55:37;;;;;;;16.67;5.53;;;34.90;58.60;;;;;;5136100;27;20385;-60
2021/06/21 09:58:17;;;;;;;16.38;5.07;;;35.10;58.10;;;;;;5135843;27;20404;-60
2021/06/21 10:00:50;;;;;;;13.05;4.70;;;35.30;57.90;;;;;;5135792;27;20130;-60
2021/06/21 10:03:21;;;;;;;20.42;5.70;;;35.40;57.40;;;;;;5135688;27;20051;-60
2021/06/21 10:06:11;;;;;;;19.42;6.40;;;35.60;57.30;;;;;;5134654;27;20047;-60
2021/06/21 10:08:40;;;;;;;16.15;5.82;;;35.70;56.80;;;;;;5135619;27;20140;-60
2021/06/21 10:11:31;;;;;;;16.90;6.35;;;35.70;56.40;;;;;;5135569;27;20043;-60
2021/06/21 10:14:02;;;;;;;21.33;5.70;;;35.60;56.80;;;;;;5135337;27;20046;-60
2021/06/21 10:16:30;;;;;;;15.48;5.28;;;35.60;56.60;;;;;;5135812;27;20481;-60
2021/06/21 10:18:58;;;;;;;19.60;6.75;;;35.60;56.50;;;;;;5134207;27;20048;-60
2021/06/21 10:21:27;;;;;;;16.35;5.55;;;35.60;56.50;;;;;;5134363;27;20050;-60
2021/06/21 10:23:56;;;;;;;20.42;6.80;;;35.40;56.20;;;;;;5135130;27;20059;-60
2021/06/21 10:26:23;;;;;;;20.67;5.75;;;35.40;56.30;;;;;;5135081;27;20039;-60
2021/06/21 10:28:52;;;;;;;21.33;6.07;;;35.40;56.40;;;;;;5135180;27;20050;-60
2021/06/21 10:31:38;;;;;;;27.85;6.88;;;35.50;56.10;;;;;;5135096;27;20051;-60
2021/06/21 10:34:07;;;;;;;22.23;5.82;;;35.60;55.90;;;;;;5134785;27;20059;-60
2021/06/21 10:36:46;;;;;;;25.33;5.88;;;35.70;55.50;;;;;;5133820;27;20059;-60
2021/06/21 10:39:25;;;;;;;21.67;6.20;;;35.70;55.50;;;;;;5135267;27;20053;-60
2021/06/21 10:42:08;;;;;;;21.73;7.65;;;35.80;55.40;;;;;;5134106;27;20504;-60
2021/06/21 10:44:39;;;;;;;25.48;6.55;;;35.90;55.60;;;;;;5134965;27;20051;-60
2021/06/21 10:47:31;;;;;;;15.77;5.82;;;35.90;55.20;;;;;;5134767;27;20047;-60
2021/06/21 10:50:01;;;;;;;19.98;5.72;;;35.80;54.90;;;;;;5134840;27;20067;-60
2021/06/21 10:52:36;;;;;;;24.48;7.22;;;35.70;55.20;;;;;;5134774;27;20043;-60
2021/06/21 10:55:29;;;;;;;;;;;35.60;55.70;;;;;;5135126;27;20046;-59
2021/06/21 10:57:59;;;;;;;28.75;6.82;;;35.50;55.70;;;;;;5134359;27;19920;-60
2021/06/21 11:00:43;;;;;;;26.80;7.60;;;35.50;55.90;;;;;;5133795;27;20129;-59
2021/06/21 11:03:26;;;;;;;21.00;5.90;;;35.60;55.50;;;;;;5134769;27;20051;-59
2021/06/21 11:06:06;;;;;;;20.88;8.82;;;35.70;55.40;;;;;;5134507;27;20047;-59
2021/06/21 11:08:39;;;;;;;17.05;6.22;;;35.80;55.30;;;;;;5135054;27;20538;-59
2021/06/21 11:11:33;;;;;;;21.60;7.25;;;35.90;55.20;;;;;;5133305;27;20051;-59
2021/06/21 11:14:15;;;;;;;25.00;6.38;;;35.70;54.60;;;;;;5126900;27;20054;-59
2021/06/21 11:16:45;;;;;;;19.67;5.90;;;35.90;54.70;;;;;;5134839;27;20343;-60
2021/06/21 11:19:21;;;;;;;23.52;7.13;;;35.90;54.40;;;;;;5134562;27;20488;-60
2021/06/21 11:21:55;;;;;;;22.23;6.35;;;35.90;54.00;;;;;;5134767;27;20112;-60
2021/06/21 11:24:46;;;;;;;20.70;6.20;;;36.00;54.40;;;;;;5134304;27;20553;-59
2021/06/21 11:27:15;;;;;;;23.33;8.02;;;36.10;54.20;;;;;;5134281;27;20109;-59
2021/06/21 11:29:49;;;;;;;23.63;7.20;;;36.20;54.70;;;;;;5134205;27;20485;-59
2021/06/21 11:32:18;;;;;;;26.48;7.72;;;36.30;54.20;;;;;;5134605;27;20122;-45
2021/06/21 11:34:57;;;;;;;20.90;7.00;;;36.30;54.30;;;;;;5134183;27;20086;-59
2021/06/21 11:37:51;;;;;;;20.45;6.05;;;36.40;54.30;;;;;;5134393;27;20055;-58
2021/06/21 11:40:22;;;;;;;20.90;6.85;;;36.50;54.10;;;;;;5134604;27;20095;-58
2021/06/21 11:43:02;;;;;;;23.15;8.02;;;36.50;53.50;;;;;;5134298;27;20078;-59
2021/06/21 11:45:51;;;;;;;29.35;9.25;;;36.60;53.00;;;;;;5134080;27;20465;-58
2021/06/21 11:48:26;;;;;;;26.95;10.13;;;36.60;53.20;;;;;;5134450;27;20048;-58
2021/06/21 11:50:55;;;;;;;24.73;8.15;;;36.70;52.50;;;;;;5134307;27;20055;-58
2021/06/21 11:53:25;;;;;;;23.52;8.43;;;36.80;52.60;;;;;;5133913;27;20043;-58
2021/06/21 11:55:52;;;;;;;25.98;8.32;;;36.80;52.30;;;;;;5133992;27;20040;-58
2021/06/21 11:58:33;;;;;;;29.25;10.10;;;36.70;52.40;;;;;;5134146;27;20043;-59
2021/06/21 12:01:23;;;;;;;27.85;8.15;;;36.70;52.40;;;;;;5133065;28;20043;-58
2021/06/21 12:03:58;;;;;;;30.83;9.05;;;36.70;51.90;;;;;;5133887;27;20142;-58
2021/06/21 12:06:26;;;;;;;;;;;36.60;52.20;;;;;;5134298;27;20571;-58
2021/06/21 12:08:55;;;;;;;23.52;7.68;;;36.40;52.50;;;;;;5133147;28;20018;-58
2021/06/21 12:11:25;;;;;;;22.20;8.10;;;36.40;52.80;;;;;;5118067;27;20087;-58
2021/06/21 12:13:55;;;;;;;27.92;9.23;;;36.40;52.90;;;;;;5138554;27;20054;-58
2021/06/21 12:16:24;;;;;;;24.05;9.35;;;36.50;53.60;;;;;;5138113;27;20450;-58
2021/06/21 12:18:55;;;;;;;20.88;7.88;;;36.50;53.90;;;;;;5137714;27;20460;-58
2021/06/21 12:21:37;;;;;;;30.27;7.47;;;36.50;53.80;;;;;;5137946;27;20130;-59
2021/06/21 12:24:24;;;;;;;16.98;6.63;;;36.50;53.80;;;;;;5137536;27;20055;-58
2021/06/21 12:27:18;;;;;;;13.95;5.93;;;36.50;55.30;;;;;;5137688;27;20047;-58
2021/06/21 12:29:46;;;;;;;18.42;6.50;;;36.30;57.40;;;;;;5135462;27;20508;-58
2021/06/21 12:32:15;;;;;;;18.25;6.40;;;36.20;56.50;;;;;;5137597;27;20374;-58
2021/06/21 12:34:55;;;;;;;23.13;7.43;;;36.20;55.40;;;;;;5137358;27;20052;-58
2021/06/21 12:37:32;;;;;;;28.95;7.65;;;36.20;55.20;;;;;;5136184;27;20059;-58
2021/06/21 12:40:02;;;;;;;17.63;6.90;;;36.10;53.60;;;;;;5137594;27;20047;-58
2021/06/21 12:42:33;;;;;;;20.08;5.85;;;35.90;57.30;;;;;;5137410;27;20127;-58
2021/06/21 12:45:14;;;;;;;14.80;5.22;;;35.80;58.20;;;;;;5137416;27;20403;-58
2021/06/21 12:47:56;;;;;;;19.83;7.13;;;35.70;58.70;;;;;;5137453;27;20136;-58
2021/06/21 12:50:26;;;;;;;31.98;7.15;;;35.70;55.40;;;;;;5136079;27;20485;-58
2021/06/21 12:52:55;;;;;;;21.60;7.55;;;35.80;53.30;;;;;;5137514;27;20139;-58
2021/06/21 12:55:28;;;;;;;11.45;4.88;;;35.80;56.60;;;;;;5137081;27;20074;-58
2021/06/21 12:58:06;;;;;;;12.18;5.90;;;35.50;58.60;;;;;;5137397;27;20047;-58
2021/06/21 13:00:50;;;;;;;8.35;4.88;;;35.40;59.00;;;;;;5136994;27;20463;-58